sensor_id;sensor_type;location;lat;lon;timestamp;temperature;humidity
43338;DHT22;28933;52.492;13.434;2024-01-30T12:23:57;10.10;90.90
43338;DHT22;28933;52.492;13.434;2024-01-30T12:26:43;10.10;90.80
43338;DHT22;28933;52.492;13.434;2024-01-30T12:29:32;10.10;90.80
43338;DHT22;28933;52.492;13.434;2024-01-30T12:32:18;10.20;90.60
43338;DHT22;28933;52.492;13.434;2024-01-30T12:35:08;10.30;90.60
43338;DHT22;28933;52.492;13.434;2024-01-30T12:37:54;10.30;90.50
43338;DHT22;28933;52.492;13.434;2024-01-30T12:40:41;10.30;90.40
43338;DHT22;28933;52.492;13.434;2024-01-30T12:43:27;10.30;90.40
43338;DHT22;28933;52.492;13.434;2024-01-30T12:46:13;10.30;90.30
43338;DHT22;28933;52.492;13.434;2024-01-30T12:49:02;10.30;90.30
43338;DHT22;28933;52.492;13.434;2024-01-30T12:51:48;10.40;90.20
43338;DHT22;28933;52.492;13.434;2024-01-30T12:54:34;10.40;90.20
43338;DHT22;28933;52.492;13.434;2024-01-30T12:57:20;10.40;90.40
43338;DHT22;28933;52.492;13.434;2024-01-30T13:00:06;10.40;90.30
43338;DHT22;28933;52.492;13.434;2024-01-30T13:02:54;10.40;90.20
43338;DHT22;28933;52.492;13.434;2024-01-30T13:05:40;10.40;90.20
43338;DHT22;28933;52.492;13.434;2024-01-30T13:08:25;10.40;90.20
43338;DHT22;28933;52.492;13.434;2024-01-30T13:11:11;10.40;90.10
43338;DHT22;28933;52.492;13.434;2024-01-30T13:13:58;10.40;90.10
43338;DHT22;28933;52.492;13.434;2024-01-30T13:16:44;10.40;90.10
43338;DHT22;28933;52.492;13.434;2024-01-30T13:19:30;10.40;90.10
43338;DHT22;28933;52.492;13.434;2024-01-30T13:22:16;10.40;90.30
43338;DHT22;28933;52.492;13.434;2024-01-30T13:25:02;10.40;90.20
43338;DHT22;28933;52.492;13.434;2024-01-30T13:27:48;10.40;90.20
43338;DHT22;28933;52.492;13.434;2024-01-30T13:30:34;10.40;90.20
43338;DHT22;28933;52.492;13.434;2024-01-30T13:33:20;10.40;90.30
43338;DHT22;28933;52.492;13.434;2024-01-30T13:36:07;10.50;90.30
43338;DHT22;28933;52.492;13.434;2024-01-30T13:38:53;10.40;90.20
43338;DHT22;28933;52.492;13.434;2024-01-30T13:41:39;10.50;90.30
43338;DHT22;28933;52.492;13.434;2024-01-30T13:44:25;10.50;90.30
43338;DHT22;28933;52.492;13.434;2024-01-30T13:47:11;10.50;90.30
43338;DHT22;28933;52.492;13.434;2024-01-30T13:49:57;10.50;90.30
43338;DHT22;28933;52.492;13.434;2024-01-30T13:52:43;10.50;90.20
43338;DHT22;28933;52.492;13.434;2024-01-30T13:55:29;10.50;90.30
43338;DHT22;28933;52.492;13.434;2024-01-30T13:58:15;10.60;90.30
43338;DHT22;28933;52.492;13.434;2024-01-30T14:01:01;10.60;90.20
43338;DHT22;28933;52.492;13.434;2024-01-30T14:03:47;10.60;90.30
43338;DHT22;28933;52.492;13.434;2024-01-30T14:06:33;10.70;90.30
43338;DHT22;28933;52.492;13.434;2024-01-30T14:09:19;10.70;90.30
43338;DHT22;28933;52.492;13.434;2024-01-30T14:12:07;10.70;90.30
43338;DHT22;28933;52.492;13.434;2024-01-30T14:14:53;10.70;90.30
43338;DHT22;28933;52.492;13.434;2024-01-30T14:17:39;10.70;90.30
43338;DHT22;28933;52.492;13.434;2024-01-30T14:20:25;10.70;90.40
43338;DHT22;28933;52.492;13.434;2024-01-30T14:23:11;10.80;90.40
43338;DHT22;28933;52.492;13.434;2024-01-30T14:25:57;10.70;90.40
43338;DHT22;28933;52.492;13.434;2024-01-30T14:28:43;10.70;90.40
43338;DHT22;28933;52.492;13.434;2024-01-30T14:31:29;10.70;90.40
43338;DHT22;28933;52.492;13.434;2024-01-30T14:34:15;10.70;90.40
43338;DHT22;28933;52.492;13.434;2024-01-30T14:37:01;10.80;90.50
43338;DHT22;28933;52.492;13.434;2024-01-30T14:39:47;10.80;90.60
43338;DHT22;28933;52.492;13.434;2024-01-30T14:42:34;10.80;90.60
43338;DHT22;28933;52.492;13.434;2024-01-30T14:45:21;10.80;90.70
43338;DHT22;28933;52.492;13.434;2024-01-30T14:48:07;10.80;90.70
43338;DHT22;28933;52.492;13.434;2024-01-30T14:50:54;10.80;90.60
43338;DHT22;28933;52.492;13.434;2024-01-30T14:53:40;10.70;90.60
43338;DHT22;28933;52.492;13.434;2024-01-30T14:56:27;10.80;90.70
43338;DHT22;28933;52.492;13.434;2024-01-30T14:59:13;10.70;90.70
43338;DHT22;28933;52.492;13.434;2024-01-30T15:01:59;10.70;90.70
43338;DHT22;28933;52.492;13.434;2024-01-30T15:04:45;10.70;90.70
43338;DHT22;28933;52.492;13.434;2024-01-30T15:07:31;10.70;90.70
43338;DHT22;28933;52.492;13.434;2024-01-30T15:10:17;10.70;90.70
43338;DHT22;28933;52.492;13.434;2024-01-30T15:13:03;10.70;90.90
43338;DHT22;28933;52.492;13.434;2024-01-30T15:15:49;10.60;90.80
43338;DHT22;28933;52.492;13.434;2024-01-30T15:18:35;10.60;90.80
43338;DHT22;28933;52.492;13.434;2024-01-30T15:21:21;10.60;90.80
43338;DHT22;28933;52.492;13.434;2024-01-30T15:24:08;10.60;90.80
43338;DHT22;28933;52.492;13.434;2024-01-30T15:26:54;10.60;90.90
43338;DHT22;28933;52.492;13.434;2024-01-30T15:29:40;10.50;90.90
43338;DHT22;28933;52.492;13.434;2024-01-30T15:32:26;10.50;91.00
43338;DHT22;28933;52.492;13.434;2024-01-30T15:35:12;10.50;91.10
43338;DHT22;28933;52.492;13.434;2024-01-30T15:37:58;10.40;91.10
43338;DHT22;28933;52.492;13.434;2024-01-30T15:40:44;10.40;91.10
43338;DHT22;28933;52.492;13.434;2024-01-30T15:43:29;10.40;91.10
43338;DHT22;28933;52.492;13.434;2024-01-30T15:46:18;10.40;91.00
43338;DHT22;28933;52.492;13.434;2024-01-30T15:49:04;10.40;91.10
43338;DHT22;28933;52.492;13.434;2024-01-30T15:51:50;10.40;91.10
43338;DHT22;28933;52.492;13.434;2024-01-30T15:54:36;10.30;91.10
43338;DHT22;28933;52.492;13.434;2024-01-30T15:57:22;10.30;91.10
43338;DHT22;28933;52.492;13.434;2024-01-30T16:00:08;10.30;91.10
43338;DHT22;28933;52.492;13.434;2024-01-30T16:02:56;10.30;91.10
43338;DHT22;28933;52.492;13.434;2024-01-30T16:05:43;10.30;91.20
43338;DHT22;28933;52.492;13.434;2024-01-30T16:08:29;10.20;91.20
43338;DHT22;28933;52.492;13.434;2024-01-30T16:11:16;10.20;91.30
43338;DHT22;28933;52.492;13.434;2024-01-30T16:14:03;10.20;91.30
43338;DHT22;28933;52.492;13.434;2024-01-30T16:16:49;10.10;91.30
43338;DHT22;28933;52.492;13.434;2024-01-30T16:19:35;10.10;91.40
43338;DHT22;28933;52.492;13.434;2024-01-30T16:22:21;10.10;91.50
43338;DHT22;28933;52.492;13.434;2024-01-30T16:25:07;10.00;91.50
43338;DHT22;28933;52.492;13.434;2024-01-30T16:27:53;10.00;91.60
43338;DHT22;28933;52.492;13.434;2024-01-30T16:30:39;10.00;91.70
43338;DHT22;28933;52.492;13.434;2024-01-30T16:33:25;10.00;91.80
43338;DHT22;28933;52.492;13.434;2024-01-30T16:36:11;9.90;91.80
43338;DHT22;28933;52.492;13.434;2024-01-30T16:38:57;9.90;91.80
43338;DHT22;28933;52.492;13.434;2024-01-30T16:41:44;9.90;91.80
43338;DHT22;28933;52.492;13.434;2024-01-30T16:44:30;9.90;91.80
43338;DHT22;28933;52.492;13.434;2024-01-30T16:47:16;10.00;91.90
43338;DHT22;28933;52.492;13.434;2024-01-30T16:50:02;9.90;92.00
43338;DHT22;28933;52.492;13.434;2024-01-30T16:52:48;9.90;92.00
43338;DHT22;28933;52.492;13.434;2024-01-30T16:55:34;9.90;92.00
43338;DHT22;28933;52.492;13.434;2024-01-30T16:58:20;9.90;92.10
43338;DHT22;28933;52.492;13.434;2024-01-30T17:01:06;9.90;92.10
43338;DHT22;28933;52.492;13.434;2024-01-30T17:03:52;9.90;92.10
43338;DHT22;28933;52.492;13.434;2024-01-30T17:06:37;9.90;92.20
43338;DHT22;28933;52.492;13.434;2024-01-30T17:09:23;9.90;92.20
43338;DHT22;28933;52.492;13.434;2024-01-30T17:12:09;9.90;92.20
43338;DHT22;28933;52.492;13.434;2024-01-30T17:14:57;9.90;92.20
43338;DHT22;28933;52.492;13.434;2024-01-30T17:17:43;10.00;92.40
43338;DHT22;28933;52.492;13.434;2024-01-30T17:20:29;10.00;92.40
43338;DHT22;28933;52.492;13.434;2024-01-30T17:23:15;10.00;92.30
43338;DHT22;28933;52.492;13.434;2024-01-30T17:26:01;10.00;92.30
43338;DHT22;28933;52.492;13.434;2024-01-30T17:28:47;10.00;92.40
43338;DHT22;28933;52.492;13.434;2024-01-30T17:31:33;10.00;92.40
43338;DHT22;28933;52.492;13.434;2024-01-30T17:34:19;10.00;92.40
43338;DHT22;28933;52.492;13.434;2024-01-30T17:37:04;10.00;92.50
43338;DHT22;28933;52.492;13.434;2024-01-30T17:39:50;9.90;92.50
43338;DHT22;28933;52.492;13.434;2024-01-30T17:42:37;10.00;92.60
43338;DHT22;28933;52.492;13.434;2024-01-30T17:45:23;9.90;92.60
43338;DHT22;28933;52.492;13.434;2024-01-30T17:48:10;10.00;92.70
43338;DHT22;28933;52.492;13.434;2024-01-30T17:50:56;9.90;92.60
43338;DHT22;28933;52.492;13.434;2024-01-30T17:53:43;9.90;92.60
43338;DHT22;28933;52.492;13.434;2024-01-30T17:56:29;10.00;92.70
43338;DHT22;28933;52.492;13.434;2024-01-30T17:59:15;10.00;92.80
43338;DHT22;28933;52.492;13.434;2024-01-30T18:02:06;9.90;92.80
43338;DHT22;28933;52.492;13.434;2024-01-30T18:04:52;10.00;92.80
43338;DHT22;28933;52.492;13.434;2024-01-30T18:07:38;10.00;92.80
43338;DHT22;28933;52.492;13.434;2024-01-30T18:10:24;10.00;92.80
43338;DHT22;28933;52.492;13.434;2024-01-30T18:13:10;10.00;92.90
43338;DHT22;28933;52.492;13.434;2024-01-30T18:15:58;10.00;92.90
43338;DHT22;28933;52.492;13.434;2024-01-30T18:18:44;10.00;93.00
43338;DHT22;28933;52.492;13.434;2024-01-30T18:21:30;10.00;93.00
43338;DHT22;28933;52.492;13.434;2024-01-30T18:24:16;10.00;93.00
43338;DHT22;28933;52.492;13.434;2024-01-30T18:27:02;10.00;93.10
43338;DHT22;28933;52.492;13.434;2024-01-30T18:29:49;10.00;93.10
43338;DHT22;28933;52.492;13.434;2024-01-30T18:32:35;10.10;93.10
43338;DHT22;28933;52.492;13.434;2024-01-30T18:35:21;10.00;93.10
43338;DHT22;28933;52.492;13.434;2024-01-30T18:38:07;10.10;93.20
43338;DHT22;28933;52.492;13.434;2024-01-30T18:40:53;10.10;93.20
43338;DHT22;28933;52.492;13.434;2024-01-30T18:43:39;10.00;93.20
43338;DHT22;28933;52.492;13.434;2024-01-30T18:46:25;10.10;93.20
43338;DHT22;28933;52.492;13.434;2024-01-30T18:49:11;10.10;93.30
43338;DHT22;28933;52.492;13.434;2024-01-30T18:51:57;10.10;93.30
43338;DHT22;28933;52.492;13.434;2024-01-30T18:54:44;10.10;93.30
43338;DHT22;28933;52.492;13.434;2024-01-30T18:57:30;10.10;93.40
43338;DHT22;28933;52.492;13.434;2024-01-30T19:00:16;10.20;93.40
43338;DHT22;28933;52.492;13.434;2024-01-30T19:03:02;10.20;93.40
43338;DHT22;28933;52.492;13.434;2024-01-30T19:05:48;10.20;93.40
43338;DHT22;28933;52.492;13.434;2024-01-30T19:08:34;10.20;93.50
43338;DHT22;28933;52.492;13.434;2024-01-30T19:11:22;10.30;93.50
43338;DHT22;28933;52.492;13.434;2024-01-30T19:14:08;10.30;93.60
43338;DHT22;28933;52.492;13.434;2024-01-30T19:16:54;10.30;93.60
43338;DHT22;28933;52.492;13.434;2024-01-30T19:19:39;10.30;93.70
43338;DHT22;28933;52.492;13.434;2024-01-30T19:22:25;10.40;93.70
43338;DHT22;28933;52.492;13.434;2024-01-30T19:25:11;10.40;93.80
43338;DHT22;28933;52.492;13.434;2024-01-30T19:27:57;10.40;93.80
43338;DHT22;28933;52.492;13.434;2024-01-30T19:30:44;10.50;93.80
43338;DHT22;28933;52.492;13.434;2024-01-30T19:33:30;10.40;93.80
43338;DHT22;28933;52.492;13.434;2024-01-30T19:36:16;10.50;93.80
43338;DHT22;28933;52.492;13.434;2024-01-30T19:39:02;10.50;93.90
43338;DHT22;28933;52.492;13.434;2024-01-30T19:41:48;10.50;94.00
43338;DHT22;28933;52.492;13.434;2024-01-30T19:44:35;10.50;94.00
43338;DHT22;28933;52.492;13.434;2024-01-30T19:47:22;10.50;94.00
43338;DHT22;28933;52.492;13.434;2024-01-30T19:50:08;10.60;94.10
43338;DHT22;28933;52.492;13.434;2024-01-30T19:52:54;10.60;94.10
43338;DHT22;28933;52.492;13.434;2024-01-30T19:55:40;10.60;94.10
43338;DHT22;28933;52.492;13.434;2024-01-30T19:58:26;10.60;94.10
43338;DHT22;28933;52.492;13.434;2024-01-30T20:01:12;10.60;94.20
43338;DHT22;28933;52.492;13.434;2024-01-30T20:03:58;10.60;94.20
43338;DHT22;28933;52.492;13.434;2024-01-30T20:06:44;10.70;94.30
43338;DHT22;28933;52.492;13.434;2024-01-30T20:09:30;10.70;94.40
43338;DHT22;28933;52.492;13.434;2024-01-30T20:12:17;10.70;94.40
43338;DHT22;28933;52.492;13.434;2024-01-30T20:15:03;10.70;94.40
43338;DHT22;28933;52.492;13.434;2024-01-30T20:17:49;10.70;94.40
43338;DHT22;28933;52.492;13.434;2024-01-30T20:20:35;10.70;94.60
43338;DHT22;28933;52.492;13.434;2024-01-30T20:23:22;10.80;94.50
43338;DHT22;28933;52.492;13.434;2024-01-30T20:26:08;10.80;94.50
43338;DHT22;28933;52.492;13.434;2024-01-30T20:28:54;10.70;94.50
43338;DHT22;28933;52.492;13.434;2024-01-30T20:31:40;10.70;94.60
43338;DHT22;28933;52.492;13.434;2024-01-30T20:34:26;10.70;94.60
43338;DHT22;28933;52.492;13.434;2024-01-30T20:37:12;10.70;94.70
43338;DHT22;28933;52.492;13.434;2024-01-30T20:39:58;10.70;94.70
43338;DHT22;28933;52.492;13.434;2024-01-30T20:42:46;10.80;94.70
43338;DHT22;28933;52.492;13.434;2024-01-30T20:45:32;10.70;94.80
43338;DHT22;28933;52.492;13.434;2024-01-30T20:48:18;10.70;94.80
43338;DHT22;28933;52.492;13.434;2024-01-30T20:51:06;10.70;94.80
43338;DHT22;28933;52.492;13.434;2024-01-30T20:53:52;10.70;94.90
43338;DHT22;28933;52.492;13.434;2024-01-30T20:56:38;10.70;94.90
43338;DHT22;28933;52.492;13.434;2024-01-30T20:59:23;10.70;95.00
43338;DHT22;28933;52.492;13.434;2024-01-30T21:02:09;10.70;95.00
43338;DHT22;28933;52.492;13.434;2024-01-30T21:04:55;10.70;95.10
43338;DHT22;28933;52.492;13.434;2024-01-30T21:07:41;10.70;95.10
43338;DHT22;28933;52.492;13.434;2024-01-30T21:10:28;10.60;95.20
43338;DHT22;28933;52.492;13.434;2024-01-30T21:13:14;10.60;95.20
43338;DHT22;28933;52.492;13.434;2024-01-30T21:15:59;10.60;95.30
43338;DHT22;28933;52.492;13.434;2024-01-30T21:18:45;10.60;95.30
43338;DHT22;28933;52.492;13.434;2024-01-30T21:21:31;10.60;95.40
43338;DHT22;28933;52.492;13.434;2024-01-30T21:24:17;10.60;95.40
43338;DHT22;28933;52.492;13.434;2024-01-30T21:27:03;10.60;95.50
43338;DHT22;28933;52.492;13.434;2024-01-30T21:29:49;10.50;95.50
43338;DHT22;28933;52.492;13.434;2024-01-30T21:32:36;10.50;95.60
43338;DHT22;28933;52.492;13.434;2024-01-30T21:35:22;10.50;95.60
43338;DHT22;28933;52.492;13.434;2024-01-30T21:38:08;10.50;95.70
43338;DHT22;28933;52.492;13.434;2024-01-30T21:40:54;10.50;95.70
43338;DHT22;28933;52.492;13.434;2024-01-30T21:43:40;10.50;95.80
43338;DHT22;28933;52.492;13.434;2024-01-30T21:46:27;10.50;95.80
43338;DHT22;28933;52.492;13.434;2024-01-30T21:49:13;10.50;95.90
43338;DHT22;28933;52.492;13.434;2024-01-30T21:51:59;10.50;95.90
43338;DHT22;28933;52.492;13.434;2024-01-30T21:54:50;10.50;95.90
43338;DHT22;28933;52.492;13.434;2024-01-30T21:57:36;10.50;96.00
43338;DHT22;28933;52.492;13.434;2024-01-30T22:00:22;10.50;96.00
43338;DHT22;28933;52.492;13.434;2024-01-30T22:03:08;10.50;96.10
43338;DHT22;28933;52.492;13.434;2024-01-30T22:05:54;10.50;96.10
43338;DHT22;28933;52.492;13.434;2024-01-30T22:08:40;10.50;96.20
43338;DHT22;28933;52.492;13.434;2024-01-30T22:11:26;10.50;96.20
43338;DHT22;28933;52.492;13.434;2024-01-30T22:14:12;10.50;96.20
43338;DHT22;28933;52.492;13.434;2024-01-30T22:16:58;10.50;96.30
43338;DHT22;28933;52.492;13.434;2024-01-30T22:19:43;10.50;96.30
43338;DHT22;28933;52.492;13.434;2024-01-30T22:22:29;10.50;96.30
43338;DHT22;28933;52.492;13.434;2024-01-30T22:25:15;10.60;96.40
43338;DHT22;28933;52.492;13.434;2024-01-30T22:28:01;10.60;96.40
43338;DHT22;28933;52.492;13.434;2024-01-30T22:30:47;10.60;96.40
43338;DHT22;28933;52.492;13.434;2024-01-30T22:33:33;10.60;96.40
43338;DHT22;28933;52.492;13.434;2024-01-30T22:36:19;10.60;96.40
43338;DHT22;28933;52.492;13.434;2024-01-30T22:39:07;10.60;96.40
43338;DHT22;28933;52.492;13.434;2024-01-30T22:41:56;10.60;96.40
43338;DHT22;28933;52.492;13.434;2024-01-30T22:44:42;10.50;96.40
43338;DHT22;28933;52.492;13.434;2024-01-30T22:47:28;10.50;96.40
43338;DHT22;28933;52.492;13.434;2024-01-30T22:50:14;10.50;96.50
43338;DHT22;28933;52.492;13.434;2024-01-30T22:53:00;10.50;96.50
43338;DHT22;28933;52.492;13.434;2024-01-30T22:55:46;10.50;96.60
43338;DHT22;28933;52.492;13.434;2024-01-30T22:58:32;10.40;96.60
43338;DHT22;28933;52.492;13.434;2024-01-30T23:01:18;10.40;96.70
43338;DHT22;28933;52.492;13.434;2024-01-30T23:04:04;10.40;96.70
43338;DHT22;28933;52.492;13.434;2024-01-30T23:06:50;10.40;96.80
43338;DHT22;28933;52.492;13.434;2024-01-30T23:09:36;10.40;96.80
43338;DHT22;28933;52.492;13.434;2024-01-30T23:12:23;10.30;96.80
43338;DHT22;28933;52.492;13.434;2024-01-30T23:15:09;10.30;96.80
43338;DHT22;28933;52.492;13.434;2024-01-30T23:17:56;10.30;96.80
43338;DHT22;28933;52.492;13.434;2024-01-30T23:20:42;10.30;96.90
43338;DHT22;28933;52.492;13.434;2024-01-30T23:23:27;10.20;96.90
43338;DHT22;28933;52.492;13.434;2024-01-30T23:26:14;10.20;96.90
43338;DHT22;28933;52.492;13.434;2024-01-30T23:29:01;10.10;96.90
43338;DHT22;28933;52.492;13.434;2024-01-30T23:31:47;10.10;97.00
43338;DHT22;28933;52.492;13.434;2024-01-30T23:34:34;10.10;97.00
43338;DHT22;28933;52.492;13.434;2024-01-30T23:37:19;10.00;97.00
43338;DHT22;28933;52.492;13.434;2024-01-30T23:40:12;10.00;97.10
43338;DHT22;28933;52.492;13.434;2024-01-30T23:42:58;10.00;97.20
43338;DHT22;28933;52.492;13.434;2024-01-30T23:45:44;9.90;97.20
43338;DHT22;28933;52.492;13.434;2024-01-30T23:48:30;9.90;97.20
43338;DHT22;28933;52.492;13.434;2024-01-30T23:51:16;9.90;97.30
43338;DHT22;28933;52.492;13.434;2024-01-30T23:54:02;9.80;97.30
43338;DHT22;28933;52.492;13.434;2024-01-30T23:56:48;9.80;97.40
43338;DHT22;28933;52.492;13.434;2024-01-30T23:59:34;9.80;97.50
